Crash-aerien 24 JAN 2010 d'un Tupolev Tu-154M RA-85787 - Mashhad Airport (MHD)
ASN logo
 

Statuts:Information is only available from news, social media or unofficial sources
Date:dimanche 24 janvier 2010
Heure:07:20
Type/Sous-type:Silhouette image of generic T154 model; specific model in this crash may look slightly different
Tupolev Tu-154M
Opérant pour:Taban Air
Loué à :Kolavia
Immatriculation: RA-85787
Numéro de série: 93A971
Année de Fabrication: 1993
Moteurs: 3 Soloviev D-30KU-154-II
Equipage:victimes: 0 / à bord: 13
Passagers:victimes: 0 / à bord: 157
Total:victimes: 0 / à bord: 170
Dégats de l'appareil: Détruit
Conséquences: Written off (damaged beyond repair)
Lieu de l'accident:Mashhad Airport (MHD) (   Iran)
Élévation des lieux de l'accident: 997 m (3271 feet) amsl
Phase de vol: A l'atterrissage (LDG)
Nature:Transport de Passagers Nat.
Aéroport de départ:Isfahan-Shahid Beheshti Airport (IFN/OIFM), Iran
Aéroport de destination:Mashhad Airport (MHD/OIMM), Iran
Numéro de vol:6437
Détails:
A Tupolev 154M passenger plane, operated by Taban Air, was destroyed in an accident at Mashhad Airport (MHD), Iran. There were 157 passengers and 13 crew members on board. Some 46 passengers were injured.
Taban Air flight 6437 originated in Abadan Airport (ABD) and diverted to Isfahan (IFN) because of poor weather at Mashhad Airport (MHD). When weather conditions had improved, the flight left Isfahan at 05:35. En route the visibility deteriorated again, forcing the crew to enter a holding pattern.
While waiting for the fog to clear, one of the passengers became seriously ill. Despite the limited visibility, the captain declared a medical emergency and attempted to land at Mashhad. During the landing the tail struck the ground. The right wing also struck the ground as the airplane veered off the runway. The undercarriage collapsed and a fire erupted.

Weather reported about the time of the accident was:
OIMM 240330Z 00000KT 0300 FG VV003 02/02 Q1021 A3015=
OIMM 240400Z 00000KT 0200 FG VV002 02/02 Q1021 A3017=
OIMM 240350Z 00000KT 0200 FG VV002 02/02 Q1021 A3017=

Sources:
» FARS
» Tehran Times 28-12-2012
» aerospacetalk.ir


Photos

photo of Tupolev-Tu-154M-RA-85787
accident date: 24-01-2010
type: Tupolev Tu-154M
registration: RA-85787
 

Video, social media

Aircraft history
date registration operator remarks
SEP 1993 RA-85787 Aeroflot manufactured
5 NOV 1993 RA-85787 Kolavia
2006 RA-85787 Taban Air leased

source: Soviet Transports

Plan
Ce plan montre l'aéroport de départ ainsi que la supposée destination du vol. La ligne fixe reliant les deux aéroports n'est pas le plan de vol exact.
La distance entre Isfahan-Shahid Beheshti Airport et Mashhad Airport est de 806 km (504 miles).

Les informations ci-dessus ne représentent pas l'opinion de la 'Flight Safety Foundation' ou de 'Aviation Safety Network' sur les causes de l'accident. Ces informations prélimimaires sont basées sur les faits tel qu'ils sont connus à ce jour.
languages: languages

Share

Tupolev Tu-154

  • 1026 built
  • 68ème loss
» safety profile

 Iran
  • le accident 61ème le plus grave (à ce moment là)
  • le accident 68ème le plus grave (en ce moment)
» safety profile

The Aviation Safety Network is an exclusive service provided by:
Quick Links:

CONNECT WITH US: FSF on social media FSF Facebook FSF Twitter FSF Youtube FSF LinkedIn FSF Instagram

©2024 Flight Safety Foundation

1920 Ballenger Av, 4th Fl.
Alexandria, Virginia 22314
www.FlightSafety.org